Terminal Aerodrome Forecast
Issued by NWS Cleveland, OH

Home | Current Version | Previous Version | Text Only | Print | Product List | Glossary On
Versions: 1 2 3 4 5 6 7 8 9 10 11 12 13 14 15 16 17 18 19 20
000
FTUS41 KCLE 092321
TAFERI
TAF
KERI 092321Z 1000/1024 28010G20KT P6SM OVC040
     FM101200 25010G20KT 3SM -SHSN OVC025
      TEMPO 1012/1015 1SM -SHSN OVC015
     FM101900 25010G15KT P6SM BKN060
     FM102300 24008KT P6SM SCT060=

USA.gov is the U.S. government's official web portal to all federal, state and local government web resources and services.